sensor_id;sensor_type;location;lat;lon;timestamp;P1;durP1;ratioP1;P2;durP2;ratioP2
14736;SDS011;7459;53.590;10.062;2024-01-30T00:01:25;10.20;;;5.82;;
14736;SDS011;7459;53.590;10.062;2024-01-30T00:03:51;10.40;;;5.70;;
14736;SDS011;7459;53.590;10.062;2024-01-30T00:06:19;12.07;;;5.68;;
14736;SDS011;7459;53.590;10.062;2024-01-30T00:08:48;11.18;;;6.15;;
14736;SDS011;7459;53.590;10.062;2024-01-30T00:11:15;11.17;;;5.77;;
14736;SDS011;7459;53.590;10.062;2024-01-30T00:13:41;12.55;;;5.53;;
14736;SDS011;7459;53.590;10.062;2024-01-30T00:16:07;10.98;;;5.53;;
14736;SDS011;7459;53.590;10.062;2024-01-30T00:18:34;11.55;;;5.68;;
14736;SDS011;7459;53.590;10.062;2024-01-30T00:20:59;9.27;;;5.00;;
14736;SDS011;7459;53.590;10.062;2024-01-30T00:23:25;10.57;;;5.03;;
14736;SDS011;7459;53.590;10.062;2024-01-30T00:25:51;12.43;;;5.87;;
14736;SDS011;7459;53.590;10.062;2024-01-30T00:28:16;12.07;;;5.27;;
14736;SDS011;7459;53.590;10.062;2024-01-30T00:30:42;10.48;;;5.00;;
14736;SDS011;7459;53.590;10.062;2024-01-30T00:33:08;11.10;;;5.53;;
14736;SDS011;7459;53.590;10.062;2024-01-30T00:35:34;12.32;;;5.90;;
14736;SDS011;7459;53.590;10.062;2024-01-30T00:38:00;11.50;;;5.35;;
14736;SDS011;7459;53.590;10.062;2024-01-30T00:40:26;11.87;;;5.33;;
14736;SDS011;7459;53.590;10.062;2024-01-30T00:42:51;10.45;;;4.97;;
14736;SDS011;7459;53.590;10.062;2024-01-30T00:45:17;11.07;;;5.90;;
14736;SDS011;7459;53.590;10.062;2024-01-30T00:47:43;11.80;;;6.05;;
14736;SDS011;7459;53.590;10.062;2024-01-30T00:50:09;11.77;;;5.28;;
14736;SDS011;7459;53.590;10.062;2024-01-30T00:52:36;9.85;;;4.93;;
14736;SDS011;7459;53.590;10.062;2024-01-30T00:55:01;10.33;;;5.33;;
14736;SDS011;7459;53.590;10.062;2024-01-30T00:57:28;10.50;;;4.75;;
14736;SDS011;7459;53.590;10.062;2024-01-30T00:59:54;11.88;;;4.68;;
14736;SDS011;7459;53.590;10.062;2024-01-30T01:02:19;9.70;;;5.13;;
14736;SDS011;7459;53.590;10.062;2024-01-30T01:04:45;12.07;;;5.50;;
14736;SDS011;7459;53.590;10.062;2024-01-30T01:07:11;8.97;;;5.40;;
14736;SDS011;7459;53.590;10.062;2024-01-30T01:09:37;10.50;;;4.93;;
14736;SDS011;7459;53.590;10.062;2024-01-30T01:12:03;9.27;;;4.97;;
14736;SDS011;7459;53.590;10.062;2024-01-30T01:14:29;11.50;;;5.38;;
14736;SDS011;7459;53.590;10.062;2024-01-30T01:16:55;9.30;;;5.03;;
14736;SDS011;7459;53.590;10.062;2024-01-30T01:19:21;9.87;;;4.80;;
14736;SDS011;7459;53.590;10.062;2024-01-30T01:21:46;12.55;;;5.03;;
14736;SDS011;7459;53.590;10.062;2024-01-30T01:24:12;9.47;;;5.20;;
14736;SDS011;7459;53.590;10.062;2024-01-30T01:26:38;11.02;;;5.22;;
14736;SDS011;7459;53.590;10.062;2024-01-30T01:29:04;10.35;;;5.07;;
14736;SDS011;7459;53.590;10.062;2024-01-30T01:31:35;12.88;;;5.53;;
14736;SDS011;7459;53.590;10.062;2024-01-30T01:34:05;10.88;;;4.60;;
14736;SDS011;7459;53.590;10.062;2024-01-30T01:36:31;9.75;;;5.25;;
14736;SDS011;7459;53.590;10.062;2024-01-30T01:38:57;9.30;;;4.83;;
14736;SDS011;7459;53.590;10.062;2024-01-30T01:41:22;9.88;;;4.43;;
14736;SDS011;7459;53.590;10.062;2024-01-30T01:43:48;8.70;;;5.27;;
14736;SDS011;7459;53.590;10.062;2024-01-30T01:46:14;9.40;;;5.15;;
14736;SDS011;7459;53.590;10.062;2024-01-30T01:48:41;10.40;;;5.25;;
14736;SDS011;7459;53.590;10.062;2024-01-30T01:51:08;10.93;;;4.70;;
14736;SDS011;7459;53.590;10.062;2024-01-30T01:53:34;10.07;;;5.32;;
14736;SDS011;7459;53.590;10.062;2024-01-30T01:56:00;8.50;;;4.65;;
14736;SDS011;7459;53.590;10.062;2024-01-30T01:58:26;10.00;;;5.38;;
14736;SDS011;7459;53.590;10.062;2024-01-30T02:00:54;9.83;;;5.20;;
14736;SDS011;7459;53.590;10.062;2024-01-30T02:03:21;10.75;;;4.55;;
14736;SDS011;7459;53.590;10.062;2024-01-30T02:05:47;11.02;;;5.30;;
14736;SDS011;7459;53.590;10.062;2024-01-30T02:08:15;10.63;;;5.03;;
14736;SDS011;7459;53.590;10.062;2024-01-30T02:10:41;8.60;;;4.50;;
14736;SDS011;7459;53.590;10.062;2024-01-30T02:13:07;9.88;;;4.80;;
14736;SDS011;7459;53.590;10.062;2024-01-30T02:15:33;12.60;;;5.00;;
14736;SDS011;7459;53.590;10.062;2024-01-30T02:17:58;8.13;;;4.80;;
14736;SDS011;7459;53.590;10.062;2024-01-30T02:20:24;10.77;;;5.60;;
14736;SDS011;7459;53.590;10.062;2024-01-30T02:22:52;12.45;;;5.72;;
14736;SDS011;7459;53.590;10.062;2024-01-30T02:25:29;10.05;;;5.30;;
14736;SDS011;7459;53.590;10.062;2024-01-30T02:27:59;8.52;;;4.45;;
14736;SDS011;7459;53.590;10.062;2024-01-30T02:30:25;11.30;;;5.37;;
14736;SDS011;7459;53.590;10.062;2024-01-30T02:32:51;8.27;;;4.70;;
14736;SDS011;7459;53.590;10.062;2024-01-30T02:35:17;10.98;;;5.18;;
14736;SDS011;7459;53.590;10.062;2024-01-30T02:37:42;11.40;;;5.17;;
14736;SDS011;7459;53.590;10.062;2024-01-30T02:40:08;10.40;;;5.50;;
14736;SDS011;7459;53.590;10.062;2024-01-30T02:42:34;9.38;;;4.88;;
14736;SDS011;7459;53.590;10.062;2024-01-30T02:45:00;10.10;;;4.97;;
14736;SDS011;7459;53.590;10.062;2024-01-30T02:47:25;10.13;;;4.60;;
14736;SDS011;7459;53.590;10.062;2024-01-30T02:49:51;9.27;;;4.80;;
14736;SDS011;7459;53.590;10.062;2024-01-30T02:52:17;12.77;;;4.95;;
14736;SDS011;7459;53.590;10.062;2024-01-30T02:54:44;11.95;;;5.93;;
14736;SDS011;7459;53.590;10.062;2024-01-30T02:57:09;11.07;;;5.07;;
14736;SDS011;7459;53.590;10.062;2024-01-30T02:59:35;10.47;;;5.33;;
14736;SDS011;7459;53.590;10.062;2024-01-30T03:02:01;13.55;;;6.18;;
14736;SDS011;7459;53.590;10.062;2024-01-30T03:07:02;10.45;;;5.65;;
14736;SDS011;7459;53.590;10.062;2024-01-30T03:09:28;10.00;;;5.07;;
14736;SDS011;7459;53.590;10.062;2024-01-30T03:11:54;11.23;;;5.10;;
14736;SDS011;7459;53.590;10.062;2024-01-30T03:14:19;13.40;;;5.70;;
14736;SDS011;7459;53.590;10.062;2024-01-30T03:16:45;8.43;;;4.93;;
14736;SDS011;7459;53.590;10.062;2024-01-30T03:19:11;10.45;;;5.35;;
14736;SDS011;7459;53.590;10.062;2024-01-30T03:21:36;10.33;;;5.53;;
14736;SDS011;7459;53.590;10.062;2024-01-30T03:24:02;10.35;;;5.43;;
14736;SDS011;7459;53.590;10.062;2024-01-30T03:26:28;11.55;;;5.28;;
14736;SDS011;7459;53.590;10.062;2024-01-30T03:28:54;10.75;;;5.38;;
14736;SDS011;7459;53.590;10.062;2024-01-30T03:31:19;10.67;;;5.40;;
14736;SDS011;7459;53.590;10.062;2024-01-30T03:33:45;12.80;;;5.28;;
14736;SDS011;7459;53.590;10.062;2024-01-30T03:36:11;11.20;;;6.03;;
14736;SDS011;7459;53.590;10.062;2024-01-30T03:38:36;10.73;;;5.20;;
14736;SDS011;7459;53.590;10.062;2024-01-30T03:41:02;13.93;;;5.40;;
14736;SDS011;7459;53.590;10.062;2024-01-30T03:43:28;10.80;;;5.60;;
14736;SDS011;7459;53.590;10.062;2024-01-30T03:45:53;11.10;;;6.05;;
14736;SDS011;7459;53.590;10.062;2024-01-30T03:48:20;12.87;;;5.70;;
14736;SDS011;7459;53.590;10.062;2024-01-30T03:50:46;11.15;;;5.53;;
14736;SDS011;7459;53.590;10.062;2024-01-30T03:53:12;9.50;;;5.43;;
14736;SDS011;7459;53.590;10.062;2024-01-30T03:55:37;11.27;;;5.88;;
14736;SDS011;7459;53.590;10.062;2024-01-30T03:58:03;13.37;;;5.60;;
14736;SDS011;7459;53.590;10.062;2024-01-30T04:00:29;9.75;;;4.97;;
14736;SDS011;7459;53.590;10.062;2024-01-30T04:02:54;11.63;;;5.50;;
14736;SDS011;7459;53.590;10.062;2024-01-30T04:05:20;11.18;;;5.60;;
14736;SDS011;7459;53.590;10.062;2024-01-30T04:07:46;10.50;;;6.00;;
14736;SDS011;7459;53.590;10.062;2024-01-30T04:10:11;10.68;;;5.57;;
14736;SDS011;7459;53.590;10.062;2024-01-30T04:12:37;13.70;;;5.85;;
14736;SDS011;7459;53.590;10.062;2024-01-30T04:15:03;9.77;;;5.40;;
14736;SDS011;7459;53.590;10.062;2024-01-30T04:17:29;11.70;;;6.10;;
14736;SDS011;7459;53.590;10.062;2024-01-30T04:19:55;12.10;;;6.05;;
14736;SDS011;7459;53.590;10.062;2024-01-30T04:22:20;12.07;;;6.27;;
14736;SDS011;7459;53.590;10.062;2024-01-30T04:24:46;12.48;;;5.72;;
14736;SDS011;7459;53.590;10.062;2024-01-30T04:27:12;11.07;;;6.10;;
14736;SDS011;7459;53.590;10.062;2024-01-30T04:29:38;10.55;;;6.15;;
14736;SDS011;7459;53.590;10.062;2024-01-30T04:32:03;10.70;;;5.77;;
14736;SDS011;7459;53.590;10.062;2024-01-30T04:34:29;13.65;;;6.45;;
14736;SDS011;7459;53.590;10.062;2024-01-30T04:36:55;11.75;;;6.15;;
14736;SDS011;7459;53.590;10.062;2024-01-30T04:39:21;9.85;;;5.82;;
14736;SDS011;7459;53.590;10.062;2024-01-30T04:41:47;11.93;;;5.72;;
14736;SDS011;7459;53.590;10.062;2024-01-30T04:44:13;11.38;;;6.28;;
14736;SDS011;7459;53.590;10.062;2024-01-30T04:46:39;12.85;;;5.90;;
14736;SDS011;7459;53.590;10.062;2024-01-30T04:49:05;11.55;;;6.38;;
14736;SDS011;7459;53.590;10.062;2024-01-30T04:51:32;11.77;;;6.47;;
14736;SDS011;7459;53.590;10.062;2024-01-30T04:53:58;10.05;;;5.82;;
14736;SDS011;7459;53.590;10.062;2024-01-30T04:56:24;12.75;;;6.50;;
14736;SDS011;7459;53.590;10.062;2024-01-30T04:58:49;13.53;;;6.43;;
14736;SDS011;7459;53.590;10.062;2024-01-30T05:01:15;13.05;;;6.63;;
14736;SDS011;7459;53.590;10.062;2024-01-30T05:03:42;11.57;;;6.72;;
14736;SDS011;7459;53.590;10.062;2024-01-30T05:06:08;10.88;;;6.20;;
14736;SDS011;7459;53.590;10.062;2024-01-30T05:08:34;13.98;;;6.80;;
14736;SDS011;7459;53.590;10.062;2024-01-30T05:11:01;12.10;;;6.00;;
14736;SDS011;7459;53.590;10.062;2024-01-30T05:13:31;10.50;;;5.93;;
14736;SDS011;7459;53.590;10.062;2024-01-30T05:15:57;14.55;;;6.35;;
14736;SDS011;7459;53.590;10.062;2024-01-30T05:18:22;12.70;;;6.93;;
14736;SDS011;7459;53.590;10.062;2024-01-30T05:20:49;13.37;;;6.87;;
14736;SDS011;7459;53.590;10.062;2024-01-30T05:23:15;11.52;;;6.18;;
14736;SDS011;7459;53.590;10.062;2024-01-30T05:25:41;13.47;;;6.37;;
14736;SDS011;7459;53.590;10.062;2024-01-30T05:28:07;13.52;;;6.47;;
14736;SDS011;7459;53.590;10.062;2024-01-30T05:30:33;13.80;;;6.68;;
14736;SDS011;7459;53.590;10.062;2024-01-30T05:32:58;15.07;;;6.60;;
14736;SDS011;7459;53.590;10.062;2024-01-30T05:35:24;12.68;;;6.68;;
14736;SDS011;7459;53.590;10.062;2024-01-30T05:37:50;14.10;;;7.20;;
14736;SDS011;7459;53.590;10.062;2024-01-30T05:40:16;14.10;;;6.60;;
14736;SDS011;7459;53.590;10.062;2024-01-30T05:42:42;12.80;;;6.45;;
14736;SDS011;7459;53.590;10.062;2024-01-30T05:45:07;11.57;;;6.50;;
14736;SDS011;7459;53.590;10.062;2024-01-30T05:47:36;13.55;;;6.90;;
14736;SDS011;7459;53.590;10.062;2024-01-30T05:50:02;11.43;;;7.00;;
14736;SDS011;7459;53.590;10.062;2024-01-30T05:52:28;10.90;;;6.40;;
14736;SDS011;7459;53.590;10.062;2024-01-30T05:54:54;11.95;;;6.32;;
14736;SDS011;7459;53.590;10.062;2024-01-30T05:57:19;14.03;;;6.83;;
14736;SDS011;7459;53.590;10.062;2024-01-30T05:59:45;12.80;;;7.28;;
14736;SDS011;7459;53.590;10.062;2024-01-30T06:02:12;14.88;;;8.27;;
14736;SDS011;7459;53.590;10.062;2024-01-30T06:04:38;12.13;;;6.85;;
14736;SDS011;7459;53.590;10.062;2024-01-30T06:07:04;14.45;;;6.30;;
14736;SDS011;7459;53.590;10.062;2024-01-30T06:09:31;10.85;;;6.75;;
14736;SDS011;7459;53.590;10.062;2024-01-30T06:11:57;14.88;;;7.40;;
14736;SDS011;7459;53.590;10.062;2024-01-30T06:14:23;12.80;;;7.50;;
14736;SDS011;7459;53.590;10.062;2024-01-30T06:16:49;11.52;;;6.25;;
14736;SDS011;7459;53.590;10.062;2024-01-30T06:19:14;13.83;;;6.97;;
14736;SDS011;7459;53.590;10.062;2024-01-30T06:21:40;14.05;;;7.10;;
14736;SDS011;7459;53.590;10.062;2024-01-30T06:24:06;12.87;;;6.87;;
14736;SDS011;7459;53.590;10.062;2024-01-30T06:26:32;13.50;;;7.30;;
14736;SDS011;7459;53.590;10.062;2024-01-30T06:28:59;15.30;;;7.93;;
14736;SDS011;7459;53.590;10.062;2024-01-30T06:31:24;12.87;;;6.93;;
14736;SDS011;7459;53.590;10.062;2024-01-30T06:33:50;17.77;;;7.40;;
14736;SDS011;7459;53.590;10.062;2024-01-30T06:36:16;14.13;;;6.57;;
14736;SDS011;7459;53.590;10.062;2024-01-30T06:38:41;15.30;;;7.20;;
14736;SDS011;7459;53.590;10.062;2024-01-30T06:41:07;11.30;;;7.20;;
14736;SDS011;7459;53.590;10.062;2024-01-30T06:43:33;14.10;;;6.93;;
14736;SDS011;7459;53.590;10.062;2024-01-30T06:45:58;15.00;;;8.77;;
14736;SDS011;7459;53.590;10.062;2024-01-30T06:48:24;14.18;;;8.02;;
14736;SDS011;7459;53.590;10.062;2024-01-30T06:50:53;15.40;;;7.78;;
14736;SDS011;7459;53.590;10.062;2024-01-30T06:53:19;14.00;;;6.88;;
14736;SDS011;7459;53.590;10.062;2024-01-30T06:55:45;15.20;;;6.90;;
14736;SDS011;7459;53.590;10.062;2024-01-30T06:58:11;12.27;;;7.28;;
14736;SDS011;7459;53.590;10.062;2024-01-30T07:00:37;16.73;;;7.72;;
14736;SDS011;7459;53.590;10.062;2024-01-30T07:03:02;15.45;;;7.50;;
14736;SDS011;7459;53.590;10.062;2024-01-30T07:05:28;17.17;;;7.90;;
14736;SDS011;7459;53.590;10.062;2024-01-30T07:07:54;11.83;;;7.30;;
14736;SDS011;7459;53.590;10.062;2024-01-30T07:10:20;16.15;;;8.13;;
14736;SDS011;7459;53.590;10.062;2024-01-30T07:12:45;16.67;;;8.48;;
14736;SDS011;7459;53.590;10.062;2024-01-30T07:15:11;16.40;;;7.65;;
14736;SDS011;7459;53.590;10.062;2024-01-30T07:17:39;18.53;;;7.87;;
14736;SDS011;7459;53.590;10.062;2024-01-30T07:20:05;15.85;;;7.97;;
14736;SDS011;7459;53.590;10.062;2024-01-30T07:22:32;16.52;;;8.10;;
14736;SDS011;7459;53.590;10.062;2024-01-30T07:24:58;14.55;;;7.38;;
14736;SDS011;7459;53.590;10.062;2024-01-30T07:27:24;16.80;;;7.57;;
14736;SDS011;7459;53.590;10.062;2024-01-30T07:29:49;15.03;;;7.90;;
14736;SDS011;7459;53.590;10.062;2024-01-30T07:32:15;12.60;;;7.97;;
14736;SDS011;7459;53.590;10.062;2024-01-30T07:34:41;14.63;;;7.43;;
14736;SDS011;7459;53.590;10.062;2024-01-30T07:37:06;15.02;;;7.63;;
14736;SDS011;7459;53.590;10.062;2024-01-30T07:39:33;12.50;;;7.40;;
14736;SDS011;7459;53.590;10.062;2024-01-30T07:41:59;17.88;;;8.15;;
14736;SDS011;7459;53.590;10.062;2024-01-30T07:44:25;13.75;;;8.20;;
14736;SDS011;7459;53.590;10.062;2024-01-30T07:46:51;17.30;;;7.43;;
14736;SDS011;7459;53.590;10.062;2024-01-30T07:49:16;14.77;;;7.90;;
14736;SDS011;7459;53.590;10.062;2024-01-30T07:51:42;16.23;;;8.20;;
14736;SDS011;7459;53.590;10.062;2024-01-30T07:54:10;15.32;;;7.55;;
14736;SDS011;7459;53.590;10.062;2024-01-30T07:56:35;16.52;;;7.68;;
14736;SDS011;7459;53.590;10.062;2024-01-30T07:59:01;14.40;;;8.27;;
14736;SDS011;7459;53.590;10.062;2024-01-30T08:01:27;18.85;;;8.93;;
14736;SDS011;7459;53.590;10.062;2024-01-30T08:03:52;17.58;;;8.60;;
14736;SDS011;7459;53.590;10.062;2024-01-30T08:06:18;13.73;;;8.55;;
14736;SDS011;7459;53.590;10.062;2024-01-30T08:08:44;13.73;;;7.47;;
14736;SDS011;7459;53.590;10.062;2024-01-30T08:11:10;15.68;;;8.88;;
14736;SDS011;7459;53.590;10.062;2024-01-30T08:13:36;22.07;;;9.17;;
14736;SDS011;7459;53.590;10.062;2024-01-30T08:16:01;14.65;;;7.88;;
14736;SDS011;7459;53.590;10.062;2024-01-30T08:18:27;15.93;;;8.53;;
14736;SDS011;7459;53.590;10.062;2024-01-30T08:20:53;15.02;;;8.02;;
14736;SDS011;7459;53.590;10.062;2024-01-30T08:23:18;17.10;;;8.70;;
14736;SDS011;7459;53.590;10.062;2024-01-30T08:25:44;15.65;;;8.80;;
14736;SDS011;7459;53.590;10.062;2024-01-30T08:28:10;15.67;;;8.27;;
14736;SDS011;7459;53.590;10.062;2024-01-30T08:30:35;16.30;;;7.88;;
14736;SDS011;7459;53.590;10.062;2024-01-30T08:33:01;18.70;;;8.20;;
14736;SDS011;7459;53.590;10.062;2024-01-30T08:35:27;16.75;;;8.48;;
14736;SDS011;7459;53.590;10.062;2024-01-30T08:37:53;18.70;;;8.50;;
14736;SDS011;7459;53.590;10.062;2024-01-30T08:40:19;18.30;;;9.55;;
14736;SDS011;7459;53.590;10.062;2024-01-30T08:42:45;16.48;;;8.20;;
14736;SDS011;7459;53.590;10.062;2024-01-30T08:45:10;15.87;;;8.80;;
14736;SDS011;7459;53.590;10.062;2024-01-30T08:47:36;20.65;;;8.48;;
14736;SDS011;7459;53.590;10.062;2024-01-30T08:50:02;17.20;;;8.15;;
14736;SDS011;7459;53.590;10.062;2024-01-30T08:52:28;15.77;;;7.93;;
14736;SDS011;7459;53.590;10.062;2024-01-30T08:54:54;15.00;;;7.88;;
14736;SDS011;7459;53.590;10.062;2024-01-30T08:57:20;17.27;;;8.93;;
14736;SDS011;7459;53.590;10.062;2024-01-30T08:59:46;16.02;;;8.05;;
14736;SDS011;7459;53.590;10.062;2024-01-30T09:02:12;17.80;;;9.53;;
14736;SDS011;7459;53.590;10.062;2024-01-30T09:04:41;16.23;;;8.68;;
14736;SDS011;7459;53.590;10.062;2024-01-30T09:07:06;17.57;;;9.60;;
14736;SDS011;7459;53.590;10.062;2024-01-30T09:09:34;18.98;;;9.43;;
14736;SDS011;7459;53.590;10.062;2024-01-30T09:12:00;16.25;;;9.05;;
14736;SDS011;7459;53.590;10.062;2024-01-30T09:14:31;19.75;;;8.90;;
14736;SDS011;7459;53.590;10.062;2024-01-30T09:16:57;18.00;;;8.13;;
14736;SDS011;7459;53.590;10.062;2024-01-30T09:19:23;16.63;;;8.88;;
14736;SDS011;7459;53.590;10.062;2024-01-30T09:21:48;15.43;;;8.67;;
14736;SDS011;7459;53.590;10.062;2024-01-30T09:24:14;14.43;;;8.45;;
14736;SDS011;7459;53.590;10.062;2024-01-30T09:26:40;17.73;;;8.87;;
14736;SDS011;7459;53.590;10.062;2024-01-30T09:29:05;15.30;;;8.53;;
14736;SDS011;7459;53.590;10.062;2024-01-30T09:31:31;17.27;;;9.07;;
14736;SDS011;7459;53.590;10.062;2024-01-30T09:33:57;17.67;;;8.98;;
14736;SDS011;7459;53.590;10.062;2024-01-30T09:36:23;15.35;;;8.60;;
14736;SDS011;7459;53.590;10.062;2024-01-30T09:38:49;16.85;;;9.30;;
14736;SDS011;7459;53.590;10.062;2024-01-30T09:41:14;17.87;;;8.93;;
14736;SDS011;7459;53.590;10.062;2024-01-30T09:43:43;19.48;;;9.15;;
14736;SDS011;7459;53.590;10.062;2024-01-30T09:46:14;16.92;;;8.50;;
14736;SDS011;7459;53.590;10.062;2024-01-30T09:48:42;20.55;;;8.70;;
14736;SDS011;7459;53.590;10.062;2024-01-30T09:51:08;20.27;;;9.17;;
14736;SDS011;7459;53.590;10.062;2024-01-30T09:53:35;16.40;;;9.02;;
14736;SDS011;7459;53.590;10.062;2024-01-30T09:56:02;15.75;;;9.13;;
14736;SDS011;7459;53.590;10.062;2024-01-30T09:58:28;15.02;;;9.02;;
14736;SDS011;7459;53.590;10.062;2024-01-30T10:00:54;16.67;;;8.80;;
14736;SDS011;7459;53.590;10.062;2024-01-30T10:03:19;18.05;;;9.20;;
14736;SDS011;7459;53.590;10.062;2024-01-30T10:05:50;19.27;;;9.53;;
14736;SDS011;7459;53.590;10.062;2024-01-30T10:08:19;18.20;;;9.00;;
14736;SDS011;7459;53.590;10.062;2024-01-30T10:10:46;18.83;;;9.23;;
14736;SDS011;7459;53.590;10.062;2024-01-30T10:13:13;21.73;;;8.75;;
14736;SDS011;7459;53.590;10.062;2024-01-30T10:15:38;20.48;;;9.55;;
14736;SDS011;7459;53.590;10.062;2024-01-30T10:18:05;16.00;;;8.27;;
14736;SDS011;7459;53.590;10.062;2024-01-30T10:20:31;16.63;;;9.33;;
14736;SDS011;7459;53.590;10.062;2024-01-30T10:22:58;16.45;;;8.65;;
14736;SDS011;7459;53.590;10.062;2024-01-30T10:25:25;21.40;;;9.45;;
14736;SDS011;7459;53.590;10.062;2024-01-30T10:27:54;15.77;;;8.35;;
14736;SDS011;7459;53.590;10.062;2024-01-30T10:30:21;18.77;;;8.85;;
14736;SDS011;7459;53.590;10.062;2024-01-30T10:32:47;15.67;;;8.17;;
14736;SDS011;7459;53.590;10.062;2024-01-30T10:35:13;19.67;;;9.00;;
14736;SDS011;7459;53.590;10.062;2024-01-30T10:37:40;21.10;;;9.15;;
14736;SDS011;7459;53.590;10.062;2024-01-30T10:40:08;18.33;;;8.82;;
14736;SDS011;7459;53.590;10.062;2024-01-30T10:42:37;19.30;;;9.13;;
14736;SDS011;7459;53.590;10.062;2024-01-30T10:45:08;16.80;;;8.57;;
14736;SDS011;7459;53.590;10.062;2024-01-30T10:47:37;17.67;;;8.90;;
14736;SDS011;7459;53.590;10.062;2024-01-30T10:50:09;17.08;;;8.10;;
14736;SDS011;7459;53.590;10.062;2024-01-30T10:52:35;21.20;;;9.15;;
14736;SDS011;7459;53.590;10.062;2024-01-30T10:55:02;17.70;;;9.13;;
14736;SDS011;7459;53.590;10.062;2024-01-30T10:57:33;20.57;;;9.10;;
14736;SDS011;7459;53.590;10.062;2024-01-30T11:00:04;19.70;;;9.02;;
14736;SDS011;7459;53.590;10.062;2024-01-30T11:02:37;18.73;;;8.93;;
14736;SDS011;7459;53.590;10.062;2024-01-30T11:05:05;20.45;;;9.40;;
14736;SDS011;7459;53.590;10.062;2024-01-30T11:07:31;18.00;;;8.43;;
14736;SDS011;7459;53.590;10.062;2024-01-30T11:12:23;21.03;;;9.10;;
14736;SDS011;7459;53.590;10.062;2024-01-30T11:15:01;17.40;;;9.40;;
14736;SDS011;7459;53.590;10.062;2024-01-30T11:17:43;17.00;;;8.30;;
14736;SDS011;7459;53.590;10.062;2024-01-30T11:20:22;15.57;;;8.13;;
14736;SDS011;7459;53.590;10.062;2024-01-30T11:22:53;18.63;;;9.32;;
14736;SDS011;7459;53.590;10.062;2024-01-30T11:25:21;14.65;;;8.63;;
14736;SDS011;7459;53.590;10.062;2024-01-30T11:27:52;19.73;;;8.48;;
14736;SDS011;7459;53.590;10.062;2024-01-30T11:30:23;16.20;;;8.55;;
14736;SDS011;7459;53.590;10.062;2024-01-30T11:33:02;19.02;;;8.45;;
14736;SDS011;7459;53.590;10.062;2024-01-30T11:35:39;17.20;;;9.30;;
14736;SDS011;7459;53.590;10.062;2024-01-30T11:38:10;17.85;;;8.20;;
14736;SDS011;7459;53.590;10.062;2024-01-30T11:40:38;16.25;;;8.63;;
14736;SDS011;7459;53.590;10.062;2024-01-30T11:43:05;15.27;;;8.27;;
14736;SDS011;7459;53.590;10.062;2024-01-30T11:45:34;16.17;;;8.35;;
14736;SDS011;7459;53.590;10.062;2024-01-30T11:48:01;16.17;;;8.52;;
14736;SDS011;7459;53.590;10.062;2024-01-30T11:50:28;16.40;;;8.45;;
14736;SDS011;7459;53.590;10.062;2024-01-30T11:53:00;15.27;;;8.15;;
14736;SDS011;7459;53.590;10.062;2024-01-30T11:55:26;18.70;;;9.63;;
14736;SDS011;7459;53.590;10.062;2024-01-30T11:57:55;16.38;;;8.25;;
14736;SDS011;7459;53.590;10.062;2024-01-30T12:00:24;18.65;;;8.77;;
14736;SDS011;7459;53.590;10.062;2024-01-30T12:02:51;16.35;;;8.52;;
14736;SDS011;7459;53.590;10.062;2024-01-30T12:05:24;15.10;;;7.85;;
14736;SDS011;7459;53.590;10.062;2024-01-30T12:07:50;16.38;;;8.05;;
14736;SDS011;7459;53.590;10.062;2024-01-30T12:10:17;16.70;;;8.32;;
14736;SDS011;7459;53.590;10.062;2024-01-30T12:12:47;15.98;;;8.38;;
14736;SDS011;7459;53.590;10.062;2024-01-30T12:15:15;14.80;;;8.23;;
14736;SDS011;7459;53.590;10.062;2024-01-30T12:17:41;19.02;;;9.40;;
14736;SDS011;7459;53.590;10.062;2024-01-30T12:20:08;15.50;;;8.55;;
14736;SDS011;7459;53.590;10.062;2024-01-30T12:22:44;20.52;;;8.20;;
14736;SDS011;7459;53.590;10.062;2024-01-30T12:25:14;17.00;;;9.15;;
14736;SDS011;7459;53.590;10.062;2024-01-30T12:27:48;16.90;;;7.85;;
14736;SDS011;7459;53.590;10.062;2024-01-30T12:30:16;16.75;;;8.65;;
14736;SDS011;7459;53.590;10.062;2024-01-30T12:32:44;17.98;;;8.60;;
14736;SDS011;7459;53.590;10.062;2024-01-30T12:35:12;15.68;;;8.23;;
14736;SDS011;7459;53.590;10.062;2024-01-30T12:37:42;15.93;;;8.23;;
14736;SDS011;7459;53.590;10.062;2024-01-30T12:40:10;18.67;;;8.77;;
14736;SDS011;7459;53.590;10.062;2024-01-30T12:42:38;16.10;;;8.52;;
14736;SDS011;7459;53.590;10.062;2024-01-30T12:45:04;15.70;;;8.20;;
14736;SDS011;7459;53.590;10.062;2024-01-30T12:47:30;16.95;;;7.88;;
14736;SDS011;7459;53.590;10.062;2024-01-30T12:49:56;17.92;;;7.72;;
14736;SDS011;7459;53.590;10.062;2024-01-30T12:52:22;17.88;;;8.05;;
14736;SDS011;7459;53.590;10.062;2024-01-30T12:54:49;14.27;;;7.50;;
14736;SDS011;7459;53.590;10.062;2024-01-30T12:57:15;15.00;;;7.93;;
14736;SDS011;7459;53.590;10.062;2024-01-30T12:59:41;16.70;;;8.23;;
14736;SDS011;7459;53.590;10.062;2024-01-30T13:02:07;15.05;;;7.07;;
14736;SDS011;7459;53.590;10.062;2024-01-30T13:04:34;18.88;;;7.13;;
14736;SDS011;7459;53.590;10.062;2024-01-30T13:07:00;16.00;;;6.95;;
14736;SDS011;7459;53.590;10.062;2024-01-30T13:09:26;14.93;;;6.87;;
14736;SDS011;7459;53.590;10.062;2024-01-30T13:11:51;16.52;;;6.88;;
14736;SDS011;7459;53.590;10.062;2024-01-30T13:14:18;14.05;;;6.45;;
14736;SDS011;7459;53.590;10.062;2024-01-30T13:16:44;13.85;;;6.63;;
14736;SDS011;7459;53.590;10.062;2024-01-30T13:19:10;14.93;;;6.93;;
14736;SDS011;7459;53.590;10.062;2024-01-30T13:21:35;15.00;;;7.63;;
14736;SDS011;7459;53.590;10.062;2024-01-30T13:24:01;15.13;;;7.03;;
14736;SDS011;7459;53.590;10.062;2024-01-30T13:26:27;14.20;;;7.25;;
14736;SDS011;7459;53.590;10.062;2024-01-30T13:28:53;13.25;;;6.40;;
14736;SDS011;7459;53.590;10.062;2024-01-30T13:31:22;15.13;;;6.57;;
14736;SDS011;7459;53.590;10.062;2024-01-30T13:33:48;14.80;;;7.10;;
14736;SDS011;7459;53.590;10.062;2024-01-30T13:36:14;15.67;;;7.87;;
14736;SDS011;7459;53.590;10.062;2024-01-30T13:38:40;14.25;;;6.88;;
14736;SDS011;7459;53.590;10.062;2024-01-30T13:41:05;15.18;;;6.88;;
14736;SDS011;7459;53.590;10.062;2024-01-30T13:43:31;15.55;;;6.75;;
14736;SDS011;7459;53.590;10.062;2024-01-30T13:45:57;11.63;;;6.10;;
14736;SDS011;7459;53.590;10.062;2024-01-30T13:48:23;14.83;;;7.03;;
14736;SDS011;7459;53.590;10.062;2024-01-30T13:50:48;14.70;;;7.55;;
14736;SDS011;7459;53.590;10.062;2024-01-30T13:53:14;12.53;;;6.33;;
14736;SDS011;7459;53.590;10.062;2024-01-30T13:55:40;14.10;;;6.70;;
14736;SDS011;7459;53.590;10.062;2024-01-30T13:58:05;11.37;;;6.13;;
14736;SDS011;7459;53.590;10.062;2024-01-30T14:00:32;18.20;;;7.40;;
14736;SDS011;7459;53.590;10.062;2024-01-30T14:02:58;18.38;;;7.22;;
14736;SDS011;7459;53.590;10.062;2024-01-30T14:05:25;15.07;;;6.82;;
14736;SDS011;7459;53.590;10.062;2024-01-30T14:07:54;14.68;;;7.13;;
14736;SDS011;7459;53.590;10.062;2024-01-30T14:10:20;16.98;;;6.95;;
14736;SDS011;7459;53.590;10.062;2024-01-30T14:12:46;14.15;;;7.22;;
14736;SDS011;7459;53.590;10.062;2024-01-30T14:15:13;12.20;;;7.05;;
14736;SDS011;7459;53.590;10.062;2024-01-30T14:17:40;14.15;;;7.07;;
14736;SDS011;7459;53.590;10.062;2024-01-30T14:20:06;16.85;;;6.68;;
14736;SDS011;7459;53.590;10.062;2024-01-30T14:22:36;14.93;;;6.68;;
14736;SDS011;7459;53.590;10.062;2024-01-30T14:25:02;14.10;;;7.13;;
14736;SDS011;7459;53.590;10.062;2024-01-30T14:27:29;14.68;;;7.25;;
14736;SDS011;7459;53.590;10.062;2024-01-30T14:29:55;14.20;;;6.75;;
14736;SDS011;7459;53.590;10.062;2024-01-30T14:32:22;14.50;;;7.20;;
14736;SDS011;7459;53.590;10.062;2024-01-30T14:34:48;16.35;;;6.20;;
14736;SDS011;7459;53.590;10.062;2024-01-30T14:37:15;18.13;;;7.43;;